sensor_id;sensor_type;location;lat;lon;timestamp;temperature;humidity
76102;SHT30;64830;46.910;6.354;2023-06-10T00:00:37;16.60;80.13
76102;SHT30;64830;46.910;6.354;2023-06-10T00:03:02;16.62;80.14
76102;SHT30;64830;46.910;6.354;2023-06-10T00:05:28;16.62;80.25
76102;SHT30;64830;46.910;6.354;2023-06-10T00:07:58;16.59;80.18
76102;SHT30;64830;46.910;6.354;2023-06-10T00:10:24;16.60;80.34
76102;SHT30;64830;46.910;6.354;2023-06-10T00:12:50;16.59;80.45
76102;SHT30;64830;46.910;6.354;2023-06-10T00:15:17;16.60;80.62
76102;SHT30;64830;46.910;6.354;2023-06-10T00:17:42;16.60;80.51
76102;SHT30;64830;46.910;6.354;2023-06-10T00:20:11;16.63;80.63
76102;SHT30;64830;46.910;6.354;2023-06-10T00:22:37;16.66;80.51
76102;SHT30;64830;46.910;6.354;2023-06-10T00:25:05;16.69;80.45
76102;SHT30;64830;46.910;6.354;2023-06-10T00:27:34;16.67;80.55
76102;SHT30;64830;46.910;6.354;2023-06-10T00:30:04;16.70;80.65
76102;SHT30;64830;46.910;6.354;2023-06-10T00:32:35;16.71;80.72
76102;SHT30;64830;46.910;6.354;2023-06-10T00:35:01;16.70;80.58
76102;SHT30;64830;46.910;6.354;2023-06-10T00:37:26;16.71;80.60
76102;SHT30;64830;46.910;6.354;2023-06-10T00:39:54;16.70;80.79
76102;SHT30;64830;46.910;6.354;2023-06-10T00:42:19;16.73;80.70
76102;SHT30;64830;46.910;6.354;2023-06-10T00:44:45;16.71;80.78
76102;SHT30;64830;46.910;6.354;2023-06-10T00:47:10;16.73;80.91
76102;SHT30;64830;46.910;6.354;2023-06-10T00:49:36;16.73;80.75
76102;SHT30;64830;46.910;6.354;2023-06-10T00:52:04;16.70;80.83
76102;SHT30;64830;46.910;6.354;2023-06-10T00:54:30;16.69;80.89
76102;SHT30;64830;46.910;6.354;2023-06-10T00:56:56;16.64;81.03
76102;SHT30;64830;46.910;6.354;2023-06-10T00:59:25;16.66;81.09
76102;SHT30;64830;46.910;6.354;2023-06-10T01:01:51;16.67;80.94
76102;SHT30;64830;46.910;6.354;2023-06-10T01:04:17;16.64;80.71
76102;SHT30;64830;46.910;6.354;2023-06-10T01:12:02;16.62;80.79
76102;SHT30;64830;46.910;6.354;2023-06-10T01:14:35;16.63;80.91
76102;SHT30;64830;46.910;6.354;2023-06-10T01:17:01;16.64;80.88
76102;SHT30;64830;46.910;6.354;2023-06-10T01:19:28;16.64;80.94
76102;SHT30;64830;46.910;6.354;2023-06-10T01:21:56;16.66;81.29
76102;SHT30;64830;46.910;6.354;2023-06-10T01:24:26;16.63;81.03
76102;SHT30;64830;46.910;6.354;2023-06-10T01:26:53;16.63;80.82
76102;SHT30;64830;46.910;6.354;2023-06-10T01:29:33;16.59;80.92
76102;SHT30;64830;46.910;6.354;2023-06-10T01:32:10;16.59;80.98
76102;SHT30;64830;46.910;6.354;2023-06-10T01:34:39;16.56;81.08
76102;SHT30;64830;46.910;6.354;2023-06-10T01:37:08;16.55;81.13
76102;SHT30;64830;46.910;6.354;2023-06-10T01:39:35;16.53;81.14
76102;SHT30;64830;46.910;6.354;2023-06-10T01:42:02;16.55;81.19
76102;SHT30;64830;46.910;6.354;2023-06-10T01:44:28;16.53;81.28
76102;SHT30;64830;46.910;6.354;2023-06-10T01:46:53;16.51;81.38
76102;SHT30;64830;46.910;6.354;2023-06-10T01:49:19;16.51;81.52
76102;SHT30;64830;46.910;6.354;2023-06-10T01:51:44;16.45;81.48
76102;SHT30;64830;46.910;6.354;2023-06-10T01:54:09;16.43;81.50
76102;SHT30;64830;46.910;6.354;2023-06-10T01:56:35;16.45;81.73
76102;SHT30;64830;46.910;6.354;2023-06-10T01:59:00;16.42;81.72
76102;SHT30;64830;46.910;6.354;2023-06-10T02:01:26;16.41;81.65
76102;SHT30;64830;46.910;6.354;2023-06-10T02:03:52;16.42;81.53
76102;SHT30;64830;46.910;6.354;2023-06-10T02:06:17;16.43;81.51
76102;SHT30;64830;46.910;6.354;2023-06-10T02:08:42;16.48;81.45
76102;SHT30;64830;46.910;6.354;2023-06-10T02:11:08;16.49;81.43
76102;SHT30;64830;46.910;6.354;2023-06-10T02:13:33;16.48;81.64
76102;SHT30;64830;46.910;6.354;2023-06-10T02:16:00;16.49;81.51
76102;SHT30;64830;46.910;6.354;2023-06-10T02:18:26;16.48;81.69
76102;SHT30;64830;46.910;6.354;2023-06-10T02:20:53;16.51;81.53
76102;SHT30;64830;46.910;6.354;2023-06-10T02:23:18;16.51;81.55
76102;SHT30;64830;46.910;6.354;2023-06-10T02:25:44;16.48;81.54
76102;SHT30;64830;46.910;6.354;2023-06-10T02:28:10;16.51;81.68
76102;SHT30;64830;46.910;6.354;2023-06-10T02:30:38;16.48;81.64
76102;SHT30;64830;46.910;6.354;2023-06-10T02:33:04;16.45;81.55
76102;SHT30;64830;46.910;6.354;2023-06-10T02:35:30;16.46;81.50
76102;SHT30;64830;46.910;6.354;2023-06-10T02:37:55;16.46;81.43
76102;SHT30;64830;46.910;6.354;2023-06-10T02:40:21;16.45;81.54
76102;SHT30;64830;46.910;6.354;2023-06-10T02:42:46;16.42;81.49
76102;SHT30;64830;46.910;6.354;2023-06-10T02:45:11;16.42;81.74
76102;SHT30;64830;46.910;6.354;2023-06-10T02:47:37;16.42;81.88
76102;SHT30;64830;46.910;6.354;2023-06-10T02:50:03;16.39;81.69
76102;SHT30;64830;46.910;6.354;2023-06-10T02:52:29;16.39;81.92
76102;SHT30;64830;46.910;6.354;2023-06-10T02:54:55;16.39;82.01
76102;SHT30;64830;46.910;6.354;2023-06-10T02:57:20;16.36;82.23
76102;SHT30;64830;46.910;6.354;2023-06-10T02:59:46;16.33;82.15
76102;SHT30;64830;46.910;6.354;2023-06-10T03:02:11;16.32;82.24
76102;SHT30;64830;46.910;6.354;2023-06-10T03:04:37;16.28;82.23
76102;SHT30;64830;46.910;6.354;2023-06-10T03:07:03;16.29;82.21
76102;SHT30;64830;46.910;6.354;2023-06-10T03:09:32;16.30;82.31
76102;SHT30;64830;46.910;6.354;2023-06-10T03:11:58;16.32;82.29
76102;SHT30;64830;46.910;6.354;2023-06-10T03:14:25;16.30;82.11
76102;SHT30;64830;46.910;6.354;2023-06-10T03:16:50;16.30;82.01
76102;SHT30;64830;46.910;6.354;2023-06-10T03:19:16;16.30;82.15
76102;SHT30;64830;46.910;6.354;2023-06-10T03:21:43;16.30;81.95
76102;SHT30;64830;46.910;6.354;2023-06-10T03:24:09;16.32;81.93
76102;SHT30;64830;46.910;6.354;2023-06-10T03:26:36;16.26;82.07
76102;SHT30;64830;46.910;6.354;2023-06-10T03:29:01;16.28;82.24
76102;SHT30;64830;46.910;6.354;2023-06-10T03:31:27;16.24;82.21
76102;SHT30;64830;46.910;6.354;2023-06-10T03:33:52;16.26;82.32
76102;SHT30;64830;46.910;6.354;2023-06-10T03:36:18;16.25;82.20
76102;SHT30;64830;46.910;6.354;2023-06-10T03:38:43;16.28;82.23
76102;SHT30;64830;46.910;6.354;2023-06-10T03:41:08;16.25;82.00
76102;SHT30;64830;46.910;6.354;2023-06-10T03:43:35;16.28;82.06
76102;SHT30;64830;46.910;6.354;2023-06-10T03:46:00;16.32;82.22
76102;SHT30;64830;46.910;6.354;2023-06-10T03:48:25;16.33;82.26
76102;SHT30;64830;46.910;6.354;2023-06-10T03:50:51;16.36;82.19
76102;SHT30;64830;46.910;6.354;2023-06-10T03:53:17;16.39;82.07
76102;SHT30;64830;46.910;6.354;2023-06-10T03:55:42;16.42;82.27
76102;SHT30;64830;46.910;6.354;2023-06-10T03:58:08;16.41;82.18
76102;SHT30;64830;46.910;6.354;2023-06-10T04:00:33;16.39;82.20
76102;SHT30;64830;46.910;6.354;2023-06-10T04:03:10;16.41;82.26
76102;SHT30;64830;46.910;6.354;2023-06-10T04:05:40;16.41;82.21
76102;SHT30;64830;46.910;6.354;2023-06-10T04:08:05;16.41;82.15
76102;SHT30;64830;46.910;6.354;2023-06-10T04:10:32;16.42;82.13
76102;SHT30;64830;46.910;6.354;2023-06-10T04:12:57;16.42;82.07
76102;SHT30;64830;46.910;6.354;2023-06-10T04:15:22;16.45;82.25
76102;SHT30;64830;46.910;6.354;2023-06-10T04:17:48;16.41;82.12
76102;SHT30;64830;46.910;6.354;2023-06-10T04:20:14;16.42;82.21
76102;SHT30;64830;46.910;6.354;2023-06-10T04:22:40;16.42;82.13
76102;SHT30;64830;46.910;6.354;2023-06-10T04:25:08;16.41;82.03
76102;SHT30;64830;46.910;6.354;2023-06-10T04:27:34;16.43;82.03
76102;SHT30;64830;46.910;6.354;2023-06-10T04:29:59;16.43;82.13
76102;SHT30;64830;46.910;6.354;2023-06-10T04:32:24;16.43;82.47
76102;SHT30;64830;46.910;6.354;2023-06-10T04:34:51;16.41;82.29
76102;SHT30;64830;46.910;6.354;2023-06-10T04:37:17;16.39;82.34
76102;SHT30;64830;46.910;6.354;2023-06-10T04:39:43;16.41;82.51
76102;SHT30;64830;46.910;6.354;2023-06-10T04:42:08;16.41;82.45
76102;SHT30;64830;46.910;6.354;2023-06-10T04:44:34;16.38;82.47
76102;SHT30;64830;46.910;6.354;2023-06-10T04:46:59;16.38;82.50
76102;SHT30;64830;46.910;6.354;2023-06-10T04:49:25;16.41;82.42
76102;SHT30;64830;46.910;6.354;2023-06-10T04:51:50;16.41;82.48
76102;SHT30;64830;46.910;6.354;2023-06-10T04:54:16;16.45;82.52
76102;SHT30;64830;46.910;6.354;2023-06-10T04:56:42;16.46;82.62
76102;SHT30;64830;46.910;6.354;2023-06-10T04:59:07;16.46;82.40
76102;SHT30;64830;46.910;6.354;2023-06-10T05:01:33;16.45;82.53
76102;SHT30;64830;46.910;6.354;2023-06-10T05:03:58;16.45;82.80
76102;SHT30;64830;46.910;6.354;2023-06-10T05:06:23;16.45;82.56
76102;SHT30;64830;46.910;6.354;2023-06-10T05:08:49;16.46;82.80
76102;SHT30;64830;46.910;6.354;2023-06-10T05:11:14;16.43;82.98
76102;SHT30;64830;46.910;6.354;2023-06-10T05:13:41;16.43;82.84
76102;SHT30;64830;46.910;6.354;2023-06-10T05:16:07;16.45;82.82
76102;SHT30;64830;46.910;6.354;2023-06-10T05:18:32;16.46;82.71
76102;SHT30;64830;46.910;6.354;2023-06-10T05:20:58;16.48;82.83
76102;SHT30;64830;46.910;6.354;2023-06-10T05:23:23;16.51;82.73
76102;SHT30;64830;46.910;6.354;2023-06-10T05:25:49;16.53;82.67
76102;SHT30;64830;46.910;6.354;2023-06-10T05:28:14;16.55;82.56
76102;SHT30;64830;46.910;6.354;2023-06-10T05:30:40;16.60;82.72
76102;SHT30;64830;46.910;6.354;2023-06-10T05:33:05;16.59;83.16
76102;SHT30;64830;46.910;6.354;2023-06-10T05:35:31;16.60;82.95
76102;SHT30;64830;46.910;6.354;2023-06-10T05:37:56;16.60;82.87
76102;SHT30;64830;46.910;6.354;2023-06-10T05:40:22;16.60;82.91
76102;SHT30;64830;46.910;6.354;2023-06-10T05:42:48;16.62;82.57
76102;SHT30;64830;46.910;6.354;2023-06-10T05:45:14;16.63;82.77
76102;SHT30;64830;46.910;6.354;2023-06-10T05:47:39;16.67;82.76
76102;SHT30;64830;46.910;6.354;2023-06-10T05:50:05;16.69;82.74
76102;SHT30;64830;46.910;6.354;2023-06-10T05:52:33;16.69;82.94
76102;SHT30;64830;46.910;6.354;2023-06-10T05:54:59;16.66;82.96
76102;SHT30;64830;46.910;6.354;2023-06-10T05:57:25;16.67;83.45
76102;SHT30;64830;46.910;6.354;2023-06-10T05:59:51;16.69;83.48
76102;SHT30;64830;46.910;6.354;2023-06-10T06:02:16;16.69;83.50
76102;SHT30;64830;46.910;6.354;2023-06-10T06:04:42;16.74;83.51
76102;SHT30;64830;46.910;6.354;2023-06-10T06:07:07;16.77;83.64
76102;SHT30;64830;46.910;6.354;2023-06-10T06:09:33;16.81;83.53
76102;SHT30;64830;46.910;6.354;2023-06-10T06:11:58;16.84;83.54
76102;SHT30;64830;46.910;6.354;2023-06-10T06:14:23;16.85;83.35
76102;SHT30;64830;46.910;6.354;2023-06-10T06:16:49;16.91;83.45
76102;SHT30;64830;46.910;6.354;2023-06-10T06:19:14;16.92;83.63
76102;SHT30;64830;46.910;6.354;2023-06-10T06:21:41;17.01;83.57
76102;SHT30;64830;46.910;6.354;2023-06-10T06:24:06;17.04;83.34
76102;SHT30;64830;46.910;6.354;2023-06-10T06:26:32;17.10;83.45
76102;SHT30;64830;46.910;6.354;2023-06-10T06:28:57;17.12;83.26
76102;SHT30;64830;46.910;6.354;2023-06-10T06:31:23;17.18;82.85
76102;SHT30;64830;46.910;6.354;2023-06-10T06:33:48;17.19;82.61
76102;SHT30;64830;46.910;6.354;2023-06-10T06:36:13;17.21;82.71
76102;SHT30;64830;46.910;6.354;2023-06-10T06:38:39;17.24;82.70
76102;SHT30;64830;46.910;6.354;2023-06-10T06:41:04;17.28;82.36
76102;SHT30;64830;46.910;6.354;2023-06-10T06:43:31;17.33;82.27
76102;SHT30;64830;46.910;6.354;2023-06-10T06:45:57;17.39;82.18
76102;SHT30;64830;46.910;6.354;2023-06-10T06:48:23;17.43;81.64
76102;SHT30;64830;46.910;6.354;2023-06-10T06:50:49;17.47;82.08
76102;SHT30;64830;46.910;6.354;2023-06-10T06:53:14;17.54;81.88
76102;SHT30;64830;46.910;6.354;2023-06-10T06:55:40;17.60;81.46
76102;SHT30;64830;46.910;6.354;2023-06-10T06:58:05;17.66;81.70
76102;SHT30;64830;46.910;6.354;2023-06-10T07:00:31;17.67;81.31
76102;SHT30;64830;46.910;6.354;2023-06-10T07:02:57;17.73;80.85
76102;SHT30;64830;46.910;6.354;2023-06-10T07:05:23;17.77;81.19
76102;SHT30;64830;46.910;6.354;2023-06-10T07:07:50;17.81;81.29
76102;SHT30;64830;46.910;6.354;2023-06-10T07:10:20;17.86;81.14
76102;SHT30;64830;46.910;6.354;2023-06-10T07:12:47;17.87;81.04
76102;SHT30;64830;46.910;6.354;2023-06-10T07:15:13;17.88;81.12
76102;SHT30;64830;46.910;6.354;2023-06-10T07:17:38;17.88;80.88
76102;SHT30;64830;46.910;6.354;2023-06-10T07:20:04;17.91;80.94
76102;SHT30;64830;46.910;6.354;2023-06-10T07:22:30;17.94;81.38
76102;SHT30;64830;46.910;6.354;2023-06-10T07:24:55;17.96;81.15
76102;SHT30;64830;46.910;6.354;2023-06-10T07:27:21;17.97;81.08
76102;SHT30;64830;46.910;6.354;2023-06-10T07:29:46;18.01;81.05
76102;SHT30;64830;46.910;6.354;2023-06-10T07:32:12;18.01;80.73
76102;SHT30;64830;46.910;6.354;2023-06-10T07:34:37;18.01;80.94
76102;SHT30;64830;46.910;6.354;2023-06-10T07:37:03;18.07;80.66
76102;SHT30;64830;46.910;6.354;2023-06-10T07:39:28;18.08;80.51
76102;SHT30;64830;46.910;6.354;2023-06-10T07:41:53;18.11;80.83
76102;SHT30;64830;46.910;6.354;2023-06-10T07:44:22;18.15;80.81
76102;SHT30;64830;46.910;6.354;2023-06-10T07:46:47;18.16;80.05
76102;SHT30;64830;46.910;6.354;2023-06-10T07:49:13;18.15;80.76
76102;SHT30;64830;46.910;6.354;2023-06-10T07:51:38;18.18;80.58
76102;SHT30;64830;46.910;6.354;2023-06-10T07:54:03;18.19;80.83
76102;SHT30;64830;46.910;6.354;2023-06-10T07:56:29;18.26;80.31
76102;SHT30;64830;46.910;6.354;2023-06-10T07:58:54;18.29;80.31
76102;SHT30;64830;46.910;6.354;2023-06-10T08:01:20;18.36;79.93
76102;SHT30;64830;46.910;6.354;2023-06-10T08:03:45;18.38;79.44
76102;SHT30;64830;46.910;6.354;2023-06-10T08:06:10;18.39;80.10
76102;SHT30;64830;46.910;6.354;2023-06-10T08:08:37;18.46;79.46
76102;SHT30;64830;46.910;6.354;2023-06-10T08:11:07;18.52;79.73
76102;SHT30;64830;46.910;6.354;2023-06-10T08:13:32;18.64;78.80
76102;SHT30;64830;46.910;6.354;2023-06-10T08:15:58;18.73;79.25
76102;SHT30;64830;46.910;6.354;2023-06-10T08:18:24;18.81;78.37
76102;SHT30;64830;46.910;6.354;2023-06-10T08:20:50;18.88;77.70
76102;SHT30;64830;46.910;6.354;2023-06-10T08:23:15;18.98;77.52
76102;SHT30;64830;46.910;6.354;2023-06-10T08:25:41;19.11;76.70
76102;SHT30;64830;46.910;6.354;2023-06-10T08:28:06;19.26;77.12
76102;SHT30;64830;46.910;6.354;2023-06-10T08:30:32;19.39;76.71
76102;SHT30;64830;46.910;6.354;2023-06-10T08:32:57;19.57;77.08
76102;SHT30;64830;46.910;6.354;2023-06-10T08:35:23;19.66;75.86
76102;SHT30;64830;46.910;6.354;2023-06-10T08:37:52;19.70;75.30
76102;SHT30;64830;46.910;6.354;2023-06-10T08:40:20;19.77;74.94
76102;SHT30;64830;46.910;6.354;2023-06-10T08:43:05;19.83;74.98
76102;SHT30;64830;46.910;6.354;2023-06-10T08:45:34;19.85;74.43
76102;SHT30;64830;46.910;6.354;2023-06-10T08:48:03;19.85;74.38
76102;SHT30;64830;46.910;6.354;2023-06-10T08:50:34;19.84;74.25
76102;SHT30;64830;46.910;6.354;2023-06-10T08:53:00;19.84;73.81
76102;SHT30;64830;46.910;6.354;2023-06-10T08:55:35;19.80;73.70
76102;SHT30;64830;46.910;6.354;2023-06-10T08:58:01;19.78;73.13
76102;SHT30;64830;46.910;6.354;2023-06-10T09:00:28;19.84;74.20
76102;SHT30;64830;46.910;6.354;2023-06-10T09:02:55;19.88;72.98
76102;SHT30;64830;46.910;6.354;2023-06-10T09:05:21;19.85;72.78
76102;SHT30;64830;46.910;6.354;2023-06-10T09:07:48;19.83;73.03
76102;SHT30;64830;46.910;6.354;2023-06-10T09:10:14;19.90;72.62
76102;SHT30;64830;46.910;6.354;2023-06-10T09:12:39;19.93;72.85
76102;SHT30;64830;46.910;6.354;2023-06-10T09:15:07;20.00;73.53
76102;SHT30;64830;46.910;6.354;2023-06-10T09:17:33;20.10;72.34
76102;SHT30;64830;46.910;6.354;2023-06-10T09:19:59;20.12;73.26
76102;SHT30;64830;46.910;6.354;2023-06-10T09:22:25;20.15;73.21
76102;SHT30;64830;46.910;6.354;2023-06-10T09:25:01;20.22;73.11
76102;SHT30;64830;46.910;6.354;2023-06-10T09:27:30;20.29;72.78
76102;SHT30;64830;46.910;6.354;2023-06-10T09:29:56;20.39;72.59
76102;SHT30;64830;46.910;6.354;2023-06-10T09:32:23;20.45;72.52
76102;SHT30;64830;46.910;6.354;2023-06-10T09:34:49;20.55;73.02
76102;SHT30;64830;46.910;6.354;2023-06-10T09:37:23;20.69;72.76
76102;SHT30;64830;46.910;6.354;2023-06-10T09:40:08;20.76;70.75
76102;SHT30;64830;46.910;6.354;2023-06-10T09:42:37;20.84;71.19
76102;SHT30;64830;46.910;6.354;2023-06-10T09:45:04;20.85;71.05
76102;SHT30;64830;46.910;6.354;2023-06-10T09:47:30;20.90;70.98
76102;SHT30;64830;46.910;6.354;2023-06-10T09:49:56;20.95;71.02
76102;SHT30;64830;46.910;6.354;2023-06-10T09:52:25;21.04;69.99
76102;SHT30;64830;46.910;6.354;2023-06-10T09:54:52;21.09;70.45
76102;SHT30;64830;46.910;6.354;2023-06-10T09:57:18;21.15;69.75
76102;SHT30;64830;46.910;6.354;2023-06-10T09:59:44;21.15;69.95
76102;SHT30;64830;46.910;6.354;2023-06-10T10:02:17;21.19;69.72
76102;SHT30;64830;46.910;6.354;2023-06-10T10:04:43;21.24;69.81
76102;SHT30;64830;46.910;6.354;2023-06-10T10:07:10;21.24;69.75
76102;SHT30;64830;46.910;6.354;2023-06-10T10:09:36;21.25;69.54
76102;SHT30;64830;46.910;6.354;2023-06-10T10:12:06;21.29;69.55
76102;SHT30;64830;46.910;6.354;2023-06-10T10:14:33;21.32;69.58
76102;SHT30;64830;46.910;6.354;2023-06-10T10:17:01;21.38;69.97
76102;SHT30;64830;46.910;6.354;2023-06-10T10:19:29;21.39;69.82
76102;SHT30;64830;46.910;6.354;2023-06-10T10:22:01;21.38;69.50
76102;SHT30;64830;46.910;6.354;2023-06-10T10:24:42;21.41;69.20
76102;SHT30;64830;46.910;6.354;2023-06-10T10:27:18;21.45;69.18
76102;SHT30;64830;46.910;6.354;2023-06-10T10:29:46;21.52;70.20
76102;SHT30;64830;46.910;6.354;2023-06-10T10:32:14;21.64;70.10
76102;SHT30;64830;46.910;6.354;2023-06-10T10:37:13;21.83;68.70
76102;SHT30;64830;46.910;6.354;2023-06-10T10:39:39;21.94;68.31
76102;SHT30;64830;46.910;6.354;2023-06-10T10:42:06;22.05;67.32
76102;SHT30;64830;46.910;6.354;2023-06-10T10:44:37;22.15;67.20
76102;SHT30;64830;46.910;6.354;2023-06-10T10:47:03;22.32;67.53
76102;SHT30;64830;46.910;6.354;2023-06-10T10:49:30;22.49;67.10
76102;SHT30;64830;46.910;6.354;2023-06-10T10:51:58;22.66;67.53
76102;SHT30;64830;46.910;6.354;2023-06-10T10:54:45;22.87;65.31
76102;SHT30;64830;46.910;6.354;2023-06-10T10:57:18;23.00;65.22
76102;SHT30;64830;46.910;6.354;2023-06-10T11:02:19;23.15;64.41
76102;SHT30;64830;46.910;6.354;2023-06-10T11:04:57;23.18;64.05
76102;SHT30;64830;46.910;6.354;2023-06-10T11:07:24;23.11;64.46
76102;SHT30;64830;46.910;6.354;2023-06-10T11:10:01;23.08;63.87
76102;SHT30;64830;46.910;6.354;2023-06-10T11:15:08;22.97;62.96
76102;SHT30;64830;46.910;6.354;2023-06-10T11:17:33;22.95;63.86
76102;SHT30;64830;46.910;6.354;2023-06-10T11:19:59;22.91;64.44
76102;SHT30;64830;46.910;6.354;2023-06-10T11:22:25;22.86;63.65
76102;SHT30;64830;46.910;6.354;2023-06-10T11:24:51;22.81;63.55
76102;SHT30;64830;46.910;6.354;2023-06-10T11:27:17;22.76;62.08
76102;SHT30;64830;46.910;6.354;2023-06-10T11:30:19;22.64;65.09
76102;SHT30;64830;46.910;6.354;2023-06-10T11:32:45;22.60;64.80
76102;SHT30;64830;46.910;6.354;2023-06-10T11:35:15;22.56;64.75
76102;SHT30;64830;46.910;6.354;2023-06-10T11:37:41;22.53;64.88
76102;SHT30;64830;46.910;6.354;2023-06-10T11:40:07;22.49;64.98
76102;SHT30;64830;46.910;6.354;2023-06-10T11:42:32;22.45;65.64
76102;SHT30;64830;46.910;6.354;2023-06-10T11:44:58;22.31;65.51
76102;SHT30;64830;46.910;6.354;2023-06-10T11:47:25;22.18;65.97
76102;SHT30;64830;46.910;6.354;2023-06-10T11:49:58;22.16;66.55
76102;SHT30;64830;46.910;6.354;2023-06-10T11:52:28;22.15;66.50
76102;SHT30;64830;46.910;6.354;2023-06-10T11:54:54;22.07;66.78
76102;SHT30;64830;46.910;6.354;2023-06-10T11:57:20;22.00;67.65
76102;SHT30;64830;46.910;6.354;2023-06-10T11:59:46;21.98;67.21
76102;SHT30;64830;46.910;6.354;2023-06-10T12:02:17;21.94;67.24
76102;SHT30;64830;46.910;6.354;2023-06-10T12:04:44;21.90;67.33
76102;SHT30;64830;46.910;6.354;2023-06-10T12:07:17;21.84;67.63
76102;SHT30;64830;46.910;6.354;2023-06-10T12:09:43;21.79;67.81
76102;SHT30;64830;46.910;6.354;2023-06-10T12:12:09;21.74;67.24
76102;SHT30;64830;46.910;6.354;2023-06-10T12:15:00;21.64;68.10
76102;SHT30;64830;46.910;6.354;2023-06-10T12:19:57;21.56;68.81
76102;SHT30;64830;46.910;6.354;2023-06-10T12:22:23;21.47;68.07
76102;SHT30;64830;46.910;6.354;2023-06-10T12:25:02;21.39;68.26
76102;SHT30;64830;46.910;6.354;2023-06-10T12:27:29;21.32;68.97
76102;SHT30;64830;46.910;6.354;2023-06-10T12:29:56;21.29;69.35
76102;SHT30;64830;46.910;6.354;2023-06-10T12:35:04;21.24;69.29
76102;SHT30;64830;46.910;6.354;2023-06-10T12:37:30;21.24;69.81
76102;SHT30;64830;46.910;6.354;2023-06-10T12:40:00;21.21;69.56
76102;SHT30;64830;46.910;6.354;2023-06-10T12:42:25;21.22;70.36
76102;SHT30;64830;46.910;6.354;2023-06-10T12:44:53;21.26;69.61
76102;SHT30;64830;46.910;6.354;2023-06-10T12:47:19;21.26;69.49
76102;SHT30;64830;46.910;6.354;2023-06-10T12:49:44;21.29;70.50
76102;SHT30;64830;46.910;6.354;2023-06-10T12:52:10;21.34;70.41
76102;SHT30;64830;46.910;6.354;2023-06-10T12:54:35;21.42;69.83
76102;SHT30;64830;46.910;6.354;2023-06-10T12:57:01;21.52;69.16
76102;SHT30;64830;46.910;6.354;2023-06-10T12:59:27;21.49;69.12
76102;SHT30;64830;46.910;6.354;2023-06-10T13:01:53;21.50;69.29
76102;SHT30;64830;46.910;6.354;2023-06-10T13:04:19;21.49;69.41
76102;SHT30;64830;46.910;6.354;2023-06-10T13:06:46;21.45;70.35
76102;SHT30;64830;46.910;6.354;2023-06-10T13:09:13;21.42;69.56
76102;SHT30;64830;46.910;6.354;2023-06-10T13:11:38;21.36;70.11
76102;SHT30;64830;46.910;6.354;2023-06-10T13:14:04;21.41;69.98
76102;SHT30;64830;46.910;6.354;2023-06-10T13:16:31;21.41;70.22
76102;SHT30;64830;46.910;6.354;2023-06-10T13:18:57;21.35;70.42
76102;SHT30;64830;46.910;6.354;2023-06-10T13:21:22;21.32;70.58
76102;SHT30;64830;46.910;6.354;2023-06-10T13:23:48;21.31;70.86
76102;SHT30;64830;46.910;6.354;2023-06-10T13:26:14;21.22;70.70
76102;SHT30;64830;46.910;6.354;2023-06-10T13:28:42;21.09;70.68
76102;SHT30;64830;46.910;6.354;2023-06-10T13:31:07;20.92;71.40
76102;SHT30;64830;46.910;6.354;2023-06-10T13:33:32;20.84;72.18
76102;SHT30;64830;46.910;6.354;2023-06-10T13:35:58;20.73;72.42
76102;SHT30;64830;46.910;6.354;2023-06-10T13:38:23;20.69;72.48
76102;SHT30;64830;46.910;6.354;2023-06-10T13:40:49;20.57;72.37
76102;SHT30;64830;46.910;6.354;2023-06-10T13:43:16;20.46;72.78
76102;SHT30;64830;46.910;6.354;2023-06-10T13:45:42;20.35;73.17
76102;SHT30;64830;46.910;6.354;2023-06-10T13:48:07;20.29;73.35
76102;SHT30;64830;46.910;6.354;2023-06-10T13:50:33;20.24;72.03
76102;SHT30;64830;46.910;6.354;2023-06-10T13:52:59;20.18;71.01
76102;SHT30;64830;46.910;6.354;2023-06-10T13:55:24;20.14;71.06
76102;SHT30;64830;46.910;6.354;2023-06-10T13:57:50;20.07;71.59
76102;SHT30;64830;46.910;6.354;2023-06-10T14:00:16;20.00;71.75
76102;SHT30;64830;46.910;6.354;2023-06-10T14:02:41;19.93;72.53
76102;SHT30;64830;46.910;6.354;2023-06-10T14:05:07;19.77;73.12
76102;SHT30;64830;46.910;6.354;2023-06-10T14:07:33;19.78;73.89
76102;SHT30;64830;46.910;6.354;2023-06-10T14:09:59;19.76;73.67
76102;SHT30;64830;46.910;6.354;2023-06-10T14:12:25;19.66;74.20
76102;SHT30;64830;46.910;6.354;2023-06-10T14:14:50;19.59;74.42
76102;SHT30;64830;46.910;6.354;2023-06-10T14:17:15;19.53;74.84
76102;SHT30;64830;46.910;6.354;2023-06-10T14:19:41;19.56;75.24
76102;SHT30;64830;46.910;6.354;2023-06-10T14:22:06;19.60;75.28
76102;SHT30;64830;46.910;6.354;2023-06-10T14:24:32;19.66;75.33
76102;SHT30;64830;46.910;6.354;2023-06-10T14:26:58;19.66;75.78
76102;SHT30;64830;46.910;6.354;2023-06-10T14:29:24;19.70;75.49
76102;SHT30;64830;46.910;6.354;2023-06-10T14:31:49;19.77;75.60
76102;SHT30;64830;46.910;6.354;2023-06-10T14:34:15;19.83;76.00
76102;SHT30;64830;46.910;6.354;2023-06-10T14:36:40;19.84;75.84
76102;SHT30;64830;46.910;6.354;2023-06-10T14:39:05;19.85;75.85
76102;SHT30;64830;46.910;6.354;2023-06-10T14:41:31;19.87;75.98
76102;SHT30;64830;46.910;6.354;2023-06-10T14:43:56;19.90;75.87
76102;SHT30;64830;46.910;6.354;2023-06-10T14:46:22;19.87;75.08
76102;SHT30;64830;46.910;6.354;2023-06-10T14:48:47;19.88;75.58
76102;SHT30;64830;46.910;6.354;2023-06-10T14:51:13;19.87;75.03
76102;SHT30;64830;46.910;6.354;2023-06-10T14:53:38;19.88;75.14
76102;SHT30;64830;46.910;6.354;2023-06-10T14:56:04;19.84;74.69
76102;SHT30;64830;46.910;6.354;2023-06-10T14:58:30;19.88;74.92
76102;SHT30;64830;46.910;6.354;2023-06-10T15:00:55;19.90;74.53
76102;SHT30;64830;46.910;6.354;2023-06-10T15:03:20;19.95;74.10
76102;SHT30;64830;46.910;6.354;2023-06-10T15:05:46;20.02;74.61
76102;SHT30;64830;46.910;6.354;2023-06-10T15:08:11;20.02;73.99
76102;SHT30;64830;46.910;6.354;2023-06-10T15:10:37;19.90;74.19
76102;SHT30;64830;46.910;6.354;2023-06-10T15:13:02;19.93;74.73
76102;SHT30;64830;46.910;6.354;2023-06-10T15:15:28;19.97;74.42
76102;SHT30;64830;46.910;6.354;2023-06-10T15:17:53;19.98;75.12
76102;SHT30;64830;46.910;6.354;2023-06-10T15:20:19;20.04;74.36
76102;SHT30;64830;46.910;6.354;2023-06-10T15:22:45;20.07;74.15
76102;SHT30;64830;46.910;6.354;2023-06-10T15:25:11;20.19;73.96
76102;SHT30;64830;46.910;6.354;2023-06-10T15:27:36;20.29;73.89
76102;SHT30;64830;46.910;6.354;2023-06-10T15:30:02;20.35;73.39
76102;SHT30;64830;46.910;6.354;2023-06-10T15:32:28;20.45;73.45
76102;SHT30;64830;46.910;6.354;2023-06-10T15:34:53;20.50;73.30
76102;SHT30;64830;46.910;6.354;2023-06-10T15:37:19;20.57;73.75
76102;SHT30;64830;46.910;6.354;2023-06-10T15:39:46;20.64;73.22
76102;SHT30;64830;46.910;6.354;2023-06-10T15:42:11;20.63;72.94
76102;SHT30;64830;46.910;6.354;2023-06-10T15:44:37;20.69;72.62